Bol Airport


Codes: FTTL/OTC
Name: Bol Airport
City: Bol
Country: Chad
Elevation: 955 ft.

Photos at Bol Airport


   Photos courtesy of SpottingLog. You can add your own sightings and photos by signing up for a free trial today.



No photos found.

Weather at Bol Airport


Time (UTC)DescriptionTempratureWindCloud coverageVisibilityPressureHumidity
19-Apr-2024 03:00Scattered Clouds28°C7 mph, NE38%10000m1005hPa42%
19-Apr-2024 06:00Scattered Clouds28°C9 mph, NE39%10000m1006hPa43%
19-Apr-2024 09:00Broken Clouds30°C13 mph, NE77%10000m1006hPa36%
19-Apr-2024 12:00Broken Clouds33°C4 mph, E53%10000m1004hPa37%
19-Apr-2024 15:00Few Clouds28°C16 mph, SW20%10000m1002hPa56%
19-Apr-2024 18:00Few Clouds31°C13 mph, NW16%10000m1003hPa41%
19-Apr-2024 21:00Clear Sky30°C16 mph, NW4%10000m1004hPa43%
20-Apr-2024 00:00Scattered Clouds29°C9 mph, N36%10000m1003hPa39%
20-Apr-2024 03:00Broken Clouds29°C11 mph, N62%10000m1002hPa41%
20-Apr-2024 06:00Scattered Clouds29°C13 mph, N43%10000m1004hPa40%
20-Apr-2024 09:00Broken Clouds30°C9 mph, SE60%10000m1006hPa45%
20-Apr-2024 12:00Broken Clouds28°C13 mph, SW60%10000m1004hPa49%
20-Apr-2024 15:00Clear Sky26°C13 mph, SW8%10000m1001hPa63%
20-Apr-2024 18:00Clear Sky29°C11 mph, W10%10000m1002hPa50%
20-Apr-2024 21:00Clear Sky30°C11 mph, N4%10000m1003hPa39%
21-Apr-2024 00:00Clear Sky29°C11 mph, N3%10000m1002hPa42%
21-Apr-2024 03:00Clear Sky29°C11 mph, N5%10000m1001hPa43%
21-Apr-2024 06:00Clear Sky28°C7 mph, E4%10000m1004hPa45%
21-Apr-2024 09:00Broken Clouds28°C7 mph, SE56%10000m1005hPa50%
21-Apr-2024 12:00Scattered Clouds27°C16 mph, SW31%10000m1003hPa49%
21-Apr-2024 15:00Clear Sky27°C13 mph, SW0%10000m1001hPa60%
21-Apr-2024 18:00Clear Sky31°C11 mph, NW0%10000m1001hPa40%
21-Apr-2024 21:00Clear Sky30°C13 mph, N4%10000m1002hPa41%
22-Apr-2024 00:00Clear Sky30°C9 mph, NE2%10000m1003hPa42%
22-Apr-2024 03:00Few Clouds29°C13 mph, NE19%10000m1002hPa41%
22-Apr-2024 06:00Few Clouds29°C13 mph, E14%10000m1004hPa42%
22-Apr-2024 09:00Overcast Clouds27°C7 mph, W86%10000m1007hPa65%
22-Apr-2024 12:00Broken Clouds25°C13 mph, SW52%10000m1004hPa69%
22-Apr-2024 15:00Clear Sky27°C13 mph, SW7%10000m1002hPa66%
22-Apr-2024 18:00Clear Sky30°C9 mph, W4%10000m1002hPa55%
22-Apr-2024 21:00Clear Sky30°C7 mph, W0%10000m1003hPa49%
23-Apr-2024 00:00Few Clouds29°C4 mph, SE24%10000m1003hPa54%
23-Apr-2024 03:00Overcast Clouds28°C4 mph, SW88%10000m1004hPa63%
23-Apr-2024 06:00Broken Clouds28°C16 mph, W63%10000m1005hPa70%
23-Apr-2024 09:00Clear Sky26°C13 mph, W0%10000m1007hPa74%
23-Apr-2024 12:00Clear Sky27°C11 mph, SW2%10000m1004hPa74%
23-Apr-2024 15:00Scattered Clouds29°C13 mph, S26%10000m1002hPa64%
23-Apr-2024 18:00Few Clouds32°C7 mph, NW13%10000m1002hPa48%
23-Apr-2024 21:00Clear Sky30°C7 mph, S5%10000m1003hPa56%
24-Apr-2024 00:00Clear Sky28°C9 mph, W3%10000m1002hPa69%